KMER/MER METAR and TAF weather

Enter ICAO airport designator
Station Type Date Time Source
KMER METAR 2022/01/19 19:45 UTC NOAA

KMER 191945Z 30006KT 4SM HZ CLR 16/15 A3024


Station Type Date Time Source
KMER Decoded METAR 2022/01/19 19:45 UTC NOAA

Merced / Castle Air Force Base, CA, United States (KMER) 37-22N 120-34W 60M
Jan 19, 2022 - 02:45 PM EST / 2022.01.19 1945 UTC
Wind: from the WNW (300 degrees) at 7 MPH (6 KT):0
Visibility: 4 mile(s):0
Sky conditions: clear
Weather: haze
Temperature: 60 F (16 C)
Dew Point: 59 F (15 C)
Relative Humidity: 93%
Pressure (altimeter): 30.24 in. Hg (1024 hPa)
ob: KMER 191945Z 30006KT 4SM HZ CLR 16/15 A3024
cycle: 20

Station Type Date Time Source
KMER TAF 2022/01/19 18:26 UTC NOAA

TAF KMER 191720Z 1918/2018 00000KT 3SM BR FEW200
FM192100 VRB03KT P6SM SKC
FM200300 VRB03KT 5SM BR SKC
FM200700 VRB03KT 1/4SM FG SKC

Example: see airport list